Time;durP1;ratioP1;P1;durP2;ratioP2;P2;SDS_P1;SDS_P2;PMS_P1;PMS_P2;Temp;Humidity;BMP_temperature;BMP_pressure;BME280_temperature;BME280_humidity;BME280_pressure;Samples;Min_cycle;Max_cycle;Signal;HPM_P1;HPM_P2
2022/06/13 00:00:19;;;;;;;4.07;1.40;;;;;;;16.74;52.52;100580.78;5020090;28;20036;-73
2022/06/13 00:02:45;;;;;;;5.25;1.65;;;;;;;16.68;52.37;100572.09;5020826;28;20535;-73
2022/06/13 00:05:11;;;;;;;6.28;1.70;;;;;;;16.64;53.08;100582.84;5025602;28;20040;-73
2022/06/13 00:07:36;;;;;;;5.45;1.50;;;;;;;16.48;54.42;100589.56;5021405;28;20415;-73
2022/06/13 00:10:02;;;;;;;7.25;1.67;;;;;;;16.37;54.17;100589.91;5006526;28;20041;-73
2022/06/13 00:12:28;;;;;;;5.18;1.58;;;;;;;16.36;54.32;100579.28;5023150;28;20184;-73
2022/06/13 00:14:54;;;;;;;5.50;1.73;;;;;;;16.34;54.86;100587.28;5024502;28;20064;-73
2022/06/13 00:17:20;;;;;;;5.90;1.88;;;;;;;16.31;54.66;100587.38;5022125;28;20188;-73
2022/06/13 00:19:45;;;;;;;6.70;1.92;;;;;;;16.25;55.54;100584.03;5025532;28;20092;-73
2022/06/13 00:22:10;;;;;;;6.88;1.60;;;;;;;16.17;55.21;100590.47;5021509;28;20034;-72
2022/06/13 00:24:36;;;;;;;8.73;1.70;;;;;;;16.19;55.29;100585.97;5024105;28;20044;-73
2022/06/13 00:27:02;;;;;;;6.53;1.85;;;;;;;16.28;54.92;100583.94;5023381;28;20030;-73
2022/06/13 00:29:27;;;;;;;3.85;1.27;;;;;;;16.33;54.71;100588.22;5021646;28;20496;-73
2022/06/13 00:31:53;;;;;;;4.38;1.35;;;;;;;16.33;54.84;100582.03;5023880;28;20389;-73
2022/06/13 00:34:18;;;;;;;4.25;1.17;;;;;;;16.36;54.59;100581.94;5021737;28;20042;-73
2022/06/13 00:36:44;;;;;;;5.80;1.17;;;;;;;16.38;55.07;100572.97;5024691;28;20076;-73
2022/06/13 00:39:09;;;;;;;3.78;1.70;;;;;;;16.25;55.13;100570.72;5020836;28;20034;-73
2022/06/13 00:41:37;;;;;;;6.60;1.85;;;;;;;16.15;55.44;100563.00;5022834;28;20054;-73
2022/06/13 00:44:27;;;;;;;4.88;1.42;;;;;;;16.09;56.37;100563.19;5023836;28;20480;-72
2022/06/13 00:46:54;;;;;;;5.40;1.55;;;;;;;15.99;56.12;100561.69;5022475;28;20037;-73
2022/06/13 00:49:32;;;;;;;5.63;1.42;;;;;;;15.96;56.25;100564.44;5021327;28;20092;-73
2022/06/13 00:52:09;;;;;;;3.03;1.30;;;;;;;15.94;56.32;100553.81;5019471;28;20035;-72
2022/06/13 00:54:37;;;;;;;5.03;1.67;;;;;;;15.90;56.75;100560.16;5021160;28;20030;-73
2022/06/13 00:57:04;;;;;;;4.40;1.70;;;;;;;15.73;56.75;100562.41;5023539;28;20083;-73
2022/06/13 00:59:33;;;;;;;5.90;1.75;;;;;;;15.65;57.83;100559.91;5006211;28;20030;-73
2022/06/13 01:01:59;;;;;;;4.63;1.85;;;;;;;15.55;57.64;100558.41;5020843;28;20562;-73
2022/06/13 01:04:24;;;;;;;7.72;2.05;;;;;;;15.53;58.17;100557.56;5024476;28;20037;-73
2022/06/13 01:06:51;;;;;;;4.50;1.75;;;;;;;15.46;58.52;100566.63;5021237;28;20095;-73
2022/06/13 01:09:19;;;;;;;6.03;1.60;;;;;;;15.43;58.09;100570.25;5020677;28;20041;-73
2022/06/13 01:11:52;;;;;;;3.72;1.50;;;;;;;15.41;58.22;100565.88;5021795;28;20037;-72
2022/06/13 01:14:31;;;;;;;6.13;1.90;;;;;;;15.47;57.69;100557.72;5024124;28;20037;-73
2022/06/13 01:17:09;;;;;;;7.10;1.90;;;;;;;15.54;57.80;100556.66;5022950;28;20045;-73
2022/06/13 01:19:54;;;;;;;3.95;1.50;;;;;;;15.66;57.52;100555.47;5014765;28;20029;-73
2022/06/13 01:22:38;;;;;;;5.72;1.90;;;;;;;15.71;56.93;100545.59;5023367;28;20435;-73
2022/06/13 01:25:25;;;;;;;6.72;2.10;;;;;;;15.75;57.91;100553.47;5023807;28;20448;-73
2022/06/13 01:27:53;;;;;;;4.22;1.70;;;;;;;15.71;57.25;100551.78;5022236;28;20052;-73
2022/06/13 01:31:05;;;;;;;5.65;2.10;;;;;;;15.56;58.75;100552.16;5020563;28;20116;-73
2022/06/13 01:33:40;;;;;;;5.10;1.75;;;;;;;15.45;57.96;100559.56;5001145;28;20420;-73
2022/06/13 01:36:26;;;;;;;4.00;2.00;;;;;;;15.41;57.95;100566.75;5021538;28;20037;-73
2022/06/13 01:39:00;;;;;;;6.43;2.05;;;;;;;15.42;57.90;100554.31;5000962;28;20042;-73
2022/06/13 01:41:54;;;;;;;5.90;1.60;;;;;;;15.48;58.04;100559.47;5020958;28;20041;-73
2022/06/13 01:44:45;;;;;;;6.90;1.95;;;;;;;15.50;57.98;100563.84;5011957;28;20057;-73
2022/06/13 01:47:37;;;;;;;5.45;1.80;;;;;;;15.51;57.80;100559.38;5022798;28;20439;-73
2022/06/13 01:50:11;;;;;;;9.00;1.98;;;;;;;15.51;57.00;100552.31;5023289;28;20037;-73
2022/06/13 01:52:50;;;;;;;7.57;2.00;;;;;;;15.60;56.63;100540.53;5021074;28;20520;-72
2022/06/13 01:55:24;;;;;;;4.70;1.70;;;;;;;15.63;56.55;100537.78;5016540;28;20037;-72
2022/06/13 01:58:09;;;;;;;4.78;1.70;;;;;;;15.72;55.75;100540.25;5021547;28;20124;-73
2022/06/13 02:00:36;;;;;;;4.57;1.67;;;;;;;15.84;55.40;100536.34;5018577;28;20109;-73
2022/06/13 02:03:26;;;;;;;5.00;1.70;;;;;;;15.97;54.54;100529.78;5020433;28;20127;-72
2022/06/13 02:06:01;;;;;;;7.95;2.80;;;;;;;16.08;54.27;100534.78;5020471;28;20045;-73
2022/06/13 02:08:31;;;;;;;5.63;1.70;;;;;;;16.17;53.76;100539.00;5016187;28;20062;-73
2022/06/13 02:11:08;;;;;;;5.07;1.63;;;;;;;16.28;53.65;100538.69;5021405;28;20055;-73
2022/06/13 02:13:48;;;;;;;5.70;1.70;;;;;;;16.33;53.12;100539.41;5023124;28;20043;-73
2022/06/13 02:16:30;;;;;;;6.70;1.90;;;;;;;16.34;53.17;100552.66;5022199;28;20049;-73
2022/06/13 02:19:13;;;;;;;5.93;1.50;;;;;;;16.35;52.84;100554.44;5017833;28;20132;-73
2022/06/13 02:21:51;;;;;;;4.60;1.63;;;;;;;16.32;52.73;100554.53;5016007;28;20092;-73
2022/06/13 02:24:22;;;;;;;4.32;1.58;;;;;;;16.31;52.58;100559.88;5020527;28;20037;-73
2022/06/13 02:26:51;;;;;;;6.63;1.75;;;;;;;16.38;52.27;100575.66;5016297;28;20034;-73
2022/06/13 02:29:23;;;;;;;6.90;1.92;;;;;;;16.48;52.35;100578.91;5021789;28;20072;-73
2022/06/13 02:31:57;;;;;;;;;;;;;;;16.49;52.55;100582.44;4993836;28;20040;-73
2022/06/13 02:34:34;;;;;;;7.35;1.88;;;;;;;16.57;52.26;100580.44;5016878;28;20052;-73
2022/06/13 02:37:09;;;;;;;8.75;1.83;;;;;;;16.59;52.49;100590.13;5020051;28;20050;-73
2022/06/13 02:40:03;;;;;;;6.78;1.70;;;;;;;16.62;52.58;100582.03;5017585;28;20045;-73
2022/06/13 02:42:45;;;;;;;7.30;2.10;;;;;;;16.65;52.32;100573.94;5018061;28;20416;-72
2022/06/13 02:45:16;;;;;;;4.90;1.67;;;;;;;16.64;52.54;100576.66;5016760;28;20057;-72
2022/06/13 02:47:54;;;;;;;6.63;1.67;;;;;;;16.65;53.01;100578.41;5021356;28;20034;-73
2022/06/13 02:50:29;;;;;;;6.55;1.55;;;;;;;16.63;53.14;100578.44;5016072;28;20044;-73
2022/06/13 02:53:00;;;;;;;6.22;2.03;;;;;;;16.68;53.17;100577.44;5022371;28;20446;-72
2022/06/13 02:55:25;;;;;;;5.70;2.13;;;;;;;16.74;53.11;100574.56;5019491;28;20045;-73
2022/06/13 02:58:00;;;;;;;10.68;2.03;;;;;;;16.76;53.07;100573.59;5022331;28;20042;-73
2022/06/13 03:00:41;;;;;;;9.68;2.08;;;;;;;16.78;53.40;100576.25;5021505;28;20051;-73
2022/06/13 03:03:09;;;;;;;5.20;1.40;;;;;;;16.73;53.65;100578.16;5015289;28;20062;-73
2022/06/13 03:05:45;;;;;;;5.68;1.70;;;;;;;16.73;53.79;100580.84;5019289;28;20167;-73
2022/06/13 03:08:59;;;;;;;4.75;1.83;;;;;;;16.74;53.80;100577.22;5019560;28;20041;-73
2022/06/13 03:11:53;;;;;;;7.50;1.77;;;;;;;16.73;53.66;100583.50;4930577;29;20043;-73
2022/06/13 03:14:36;;;;;;;6.95;1.88;;;;;;;16.62;54.56;100598.00;5016909;28;20050;-72
2022/06/13 03:17:14;;;;;;;7.55;1.80;;;;;;;16.63;54.43;100602.41;5023057;28;20030;-72
2022/06/13 03:19:46;;;;;;;6.00;1.60;;;;;;;16.62;54.47;100600.69;5022136;28;20033;-73
2022/06/13 03:22:26;;;;;;;6.03;1.85;;;;;;;16.70;54.65;100612.91;5025472;28;20091;-73
2022/06/13 03:25:15;;;;;;;5.93;1.60;;;;;;;16.77;54.59;100623.38;5023058;28;20040;-73
2022/06/13 03:27:47;;;;;;;6.35;2.08;;;;;;;16.81;54.65;100600.16;5022817;28;20405;-73
2022/06/13 03:30:17;;;;;;;6.38;2.00;;;;;;;16.73;54.53;100613.69;5022864;28;20034;-73
2022/06/13 03:35:44;;;;;;;6.80;1.73;;;;;;;16.70;55.00;100628.91;5023004;28;20499;-73
2022/06/13 03:38:14;;;;;;;4.80;1.75;;;;;;;16.69;55.04;100628.03;5022968;28;20037;-72
2022/06/13 03:40:44;;;;;;;6.18;1.38;;;;;;;16.69;55.59;100633.38;5019310;28;20025;-73
2022/06/13 03:43:15;;;;;;;5.05;1.80;;;;;;;16.70;55.49;100632.44;5024072;28;20403;-72
2022/06/13 03:45:50;;;;;;;5.55;2.08;;;;;;;16.62;55.83;100627.31;5025606;28;20095;-73
2022/06/13 03:48:54;;;;;;;8.15;2.22;;;;;;;16.64;55.79;100627.28;5017449;28;20034;-73
2022/06/13 03:51:34;;;;;;;6.35;1.90;;;;;;;16.67;56.11;100631.66;4993597;28;20107;-72
2022/06/13 03:54:26;;;;;;;5.13;1.60;;;;;;;16.71;56.19;100628.84;5022068;28;20041;-73
2022/06/13 03:57:20;;;;;;;5.55;1.85;;;;;;;16.83;55.64;100636.50;5022496;28;20088;-73
2022/06/13 04:00:05;;;;;;;5.55;1.60;;;;;;;16.94;55.49;100637.97;5015690;28;20052;-73
2022/06/13 04:02:33;;;;;;;6.05;1.75;;;;;;;16.97;55.51;100646.72;5022604;28;20044;-73
2022/06/13 04:04:59;;;;;;;6.68;1.60;;;;;;;16.87;55.93;100655.94;5024975;28;20040;-72
2022/06/13 04:07:29;;;;;;;7.35;2.05;;;;;;;16.90;55.94;100657.63;5025380;28;20029;-73
2022/06/13 04:10:00;;;;;;;5.60;1.83;;;;;;;16.96;55.59;100653.00;5023117;28;20037;-73
2022/06/13 04:12:31;;;;;;;6.57;1.83;;;;;;;17.01;55.29;100647.53;5022483;28;20648;-73
2022/06/13 04:15:11;;;;;;;7.75;2.13;;;;;;;17.00;55.57;100648.44;5025415;28;20033;-73
2022/06/13 04:18:08;;;;;;;5.32;2.00;;;;;;;17.01;55.67;100655.53;5021556;28;20042;-73
2022/06/13 04:20:48;;;;;;;6.43;1.83;;;;;;;17.13;55.51;100652.47;5024699;28;20038;-72
2022/06/13 04:23:39;;;;;;;5.85;2.03;;;;;;;17.26;55.23;100645.81;5023527;28;20055;-73
2022/06/13 04:26:13;;;;;;;6.45;2.30;;;;;;;17.46;54.71;100655.84;5021674;28;20072;-73
2022/06/13 04:28:53;;;;;;;6.75;2.08;;;;;;;17.50;54.61;100660.19;5018645;28;20029;-73
2022/06/13 04:31:21;;;;;;;6.25;1.90;;;;;;;17.50;54.91;100662.84;5024106;28;20387;-72
2022/06/13 04:33:58;;;;;;;8.75;2.17;;;;;;;17.45;54.87;100671.94;5017814;28;20416;-73
2022/06/13 04:36:26;;;;;;;10.60;2.13;;;;;;;17.44;55.32;100662.16;5022658;28;20492;-73
2022/06/13 04:38:56;;;;;;;7.20;2.20;;;;;;;17.34;55.46;100664.25;5024567;28;20090;-73
2022/06/13 04:41:25;;;;;;;5.30;2.22;;;;;;;17.24;55.69;100654.81;5017754;28;20057;-72
2022/06/13 04:43:55;;;;;;;7.72;2.00;;;;;;;17.20;56.08;100653.16;5023472;28;20033;-73
2022/06/13 04:46:25;;;;;;;6.65;1.77;;;;;;;17.37;55.99;100663.28;5024158;28;20045;-72
2022/06/13 04:48:53;;;;;;;7.25;1.80;;;;;;;17.52;55.47;100660.97;5016949;28;20034;-73
2022/06/13 04:51:30;;;;;;;8.35;2.25;;;;;;;17.67;55.25;100661.41;5022771;28;20100;-73
2022/06/13 04:54:05;;;;;;;7.82;1.73;;;;;;;17.81;54.71;100658.31;5024452;28;20457;-73
2022/06/13 04:56:32;;;;;;;5.75;2.03;;;;;;;17.91;54.67;100668.63;5020040;28;20063;-73
2022/06/13 04:58:59;;;;;;;6.10;1.80;;;;;;;17.87;54.92;100675.00;5022030;28;20037;-73
2022/06/13 05:01:33;;;;;;;8.20;2.08;;;;;;;17.78;55.09;100672.59;5023356;28;20412;-73
2022/06/13 05:04:02;;;;;;;9.05;1.98;;;;;;;17.61;55.66;100653.63;5018635;28;20121;-73
2022/06/13 05:06:55;;;;;;;4.93;1.60;;;;;;;17.59;56.48;100663.47;5020943;28;20408;-73
2022/06/13 05:09:25;;;;;;;8.98;2.03;;;;;;;17.39;58.31;100672.97;5019949;28;20092;-72
2022/06/13 05:12:12;;;;;;;6.03;1.90;;;;;;;17.09;59.97;100665.03;5020146;28;20106;-72
2022/06/13 05:14:54;;;;;;;7.60;2.33;;;;;;;17.08;60.91;100652.63;5020471;28;20056;-73
2022/06/13 05:17:34;;;;;;;9.90;2.25;;;;;;;17.21;60.78;100657.56;5020991;28;20480;-72
2022/06/13 05:20:06;;;;;;;8.43;2.00;;;;;;;17.33;61.44;100666.97;5018809;28;20041;-73
2022/06/13 05:22:50;;;;;;;6.80;1.88;;;;;;;17.32;62.18;100676.78;5020935;28;20469;-73
2022/06/13 05:25:39;;;;;;;10.25;2.33;;;;;;;17.18;62.07;100679.88;5020451;28;20034;-72
2022/06/13 05:28:04;;;;;;;9.13;2.53;;;;;;;17.14;62.20;100672.03;5020160;28;20407;-73
2022/06/13 05:30:29;;;;;;;7.03;2.75;;;;;;;17.19;63.95;100659.44;5021736;28;20038;-72
2022/06/13 05:32:56;;;;;;;7.72;2.30;;;;;;;16.88;65.91;100659.50;5022718;28;20044;-72
2022/06/13 05:35:28;;;;;;;8.48;2.60;;;;;;;16.67;66.92;100666.31;5021016;28;20045;-73
2022/06/13 05:37:56;;;;;;;9.65;2.72;;;;;;;16.49;67.48;100668.56;5021070;28;20123;-72
2022/06/13 05:40:23;;;;;;;7.85;2.47;;;;;;;16.58;67.85;100678.06;5021762;28;20628;-72
2022/06/13 05:42:49;;;;;;;8.18;2.38;;;;;;;16.66;67.41;100689.38;5022710;28;20033;-73
2022/06/13 05:45:17;;;;;;;8.50;2.50;;;;;;;16.68;66.02;100679.56;5020440;28;20550;-73
2022/06/13 05:47:44;;;;;;;11.00;2.53;;;;;;;16.78;66.11;100689.06;5019361;28;20038;-73
2022/06/13 05:50:15;;;;;;;7.25;2.25;;;;;;;16.89;65.92;100699.41;5021286;28;20041;-72
2022/06/13 05:52:41;;;;;;;9.00;2.05;;;;;;;16.91;65.74;100694.91;5020029;28;20037;-73
2022/06/13 05:55:07;;;;;;;7.18;2.30;;;;;;;16.93;65.15;100689.56;5023490;28;20037;-72
2022/06/13 05:57:32;;;;;;;7.97;2.25;;;;;;;16.98;65.31;100691.16;5020233;28;20042;-73
2022/06/13 05:59:57;;;;;;;8.00;1.95;;;;;;;17.08;65.43;100678.41;5022503;28;20025;-73
2022/06/13 06:02:23;;;;;;;7.03;2.22;;;;;;;17.33;64.71;100683.84;5020984;28;20563;-72
2022/06/13 06:04:48;;;;;;;10.48;2.88;;;;;;;17.47;63.21;100694.09;5020962;28;20471;-72
2022/06/13 06:07:13;;;;;;;7.72;2.33;;;;;;;17.73;63.15;100693.22;5022666;28;20489;-72
2022/06/13 06:09:39;;;;;;;7.68;2.00;;;;;;;17.75;61.68;100688.72;5020112;28;20517;-73
2022/06/13 06:12:04;;;;;;;6.55;2.10;;;;;;;17.80;61.52;100689.47;5022511;28;20126;-72
2022/06/13 06:14:29;;;;;;;7.07;2.33;;;;;;;17.83;61.85;100689.38;5020376;28;20129;-73
2022/06/13 06:16:55;;;;;;;7.60;2.20;;;;;;;17.89;58.44;100696.28;5020712;28;20042;-73
2022/06/13 06:19:21;;;;;;;7.50;2.20;;;;;;;17.93;58.62;100697.94;5003768;28;20046;-73
2022/06/13 06:21:46;;;;;;;9.38;2.05;;;;;;;18.16;57.34;100702.50;5019955;28;20040;-73
2022/06/13 06:24:12;;;;;;;5.18;1.73;;;;;;;18.34;56.61;100698.31;5022723;28;20492;-73
2022/06/13 06:26:37;;;;;;;16.33;2.70;;;;;;;18.50;55.34;100706.66;5020403;28;20516;-73
2022/06/13 06:29:02;;;;;;;8.20;1.85;;;;;;;18.52;54.50;100720.81;5019812;28;20038;-72
2022/06/13 06:31:28;;;;;;;7.18;2.05;;;;;;;18.56;54.04;100701.09;5021440;28;20132;-72
2022/06/13 06:33:53;;;;;;;5.03;1.88;;;;;;;18.70;53.43;100709.44;5020725;28;20129;-72
2022/06/13 06:36:18;;;;;;;7.13;2.65;;;;;;;18.67;53.67;100714.06;5020933;28;20518;-73
2022/06/13 06:38:45;;;;;;;6.00;1.95;;;;;;;18.64;53.27;100720.38;5022037;28;20453;-73
2022/06/13 06:41:11;;;;;;;6.63;2.20;;;;;;;18.59;53.00;100717.00;5018798;28;20053;-73
2022/06/13 06:43:36;;;;;;;4.88;1.55;;;;;;;18.72;53.30;100720.97;5022473;28;20099;-73
2022/06/13 06:46:02;;;;;;;10.32;2.00;;;;;;;18.75;51.52;100723.56;5020207;28;20046;-73
2022/06/13 06:48:28;;;;;;;5.47;1.77;;;;;;;18.75;51.70;100715.53;5021606;28;20026;-73
2022/06/13 06:50:53;;;;;;;6.18;1.90;;;;;;;18.66;51.68;100723.00;5024908;28;20409;-73
2022/06/13 06:53:21;;;;;;;6.82;2.30;;;;;;;18.70;51.32;100729.97;5024589;28;20045;-72
2022/06/13 07:01:16;;;;;;;5.95;2.22;;;;;;;19.01;50.38;100729.75;5022735;28;20481;-73
2022/06/13 07:03:43;;;;;;;11.30;3.22;;;;;;;19.23;50.18;100746.72;5023549;28;20034;-73
2022/06/13 07:06:09;;;;;;;9.52;2.25;;;;;;;19.09;49.02;100745.50;5026550;28;20038;-73
2022/06/13 07:08:36;;;;;;;6.75;2.20;;;;;;;18.91;49.76;100765.78;5023549;28;20056;-73
2022/06/13 07:13:48;;;;;;;7.45;1.98;;;;;;;18.81;49.80;100743.84;5020998;28;20042;-73
2022/06/13 07:16:13;;;;;;;11.63;2.45;;;;;;;18.85;50.02;100744.63;5024583;28;20151;-73
2022/06/13 07:18:41;;;;;;;4.00;1.60;;;;;;;18.95;49.24;100756.72;5021392;28;20038;-73
2022/06/13 07:21:07;;;;;;;7.78;2.08;;;;;;;19.02;48.65;100750.19;5025131;28;20037;-73
2022/06/13 07:23:33;;;;;;;4.93;1.70;;;;;;;19.05;48.71;100734.06;5024427;28;20037;-73
2022/06/13 07:25:58;;;;;;;6.05;2.53;;;;;;;19.26;48.40;100735.91;5023309;28;20431;-73
2022/06/13 07:28:24;;;;;;;6.95;2.10;;;;;;;19.43;47.26;100745.06;5025176;28;20029;-73
2022/06/13 07:30:49;;;;;;;5.57;2.00;;;;;;;19.53;47.29;100737.53;5007825;28;20042;-73
2022/06/13 07:33:14;;;;;;;5.75;1.90;;;;;;;19.68;45.12;100737.84;5023522;28;20037;-73
2022/06/13 07:35:40;;;;;;;6.72;2.03;;;;;;;19.63;45.12;100739.78;5025080;28;20080;-72
2022/06/13 07:38:18;;;;;;;6.72;1.85;;;;;;;19.57;44.08;100740.06;5021145;28;20098;-72
2022/06/13 07:40:50;;;;;;;4.95;1.63;;;;;;;19.76;43.71;100739.34;5022215;28;20046;-72
2022/06/13 07:43:25;;;;;;;5.45;1.55;;;;;;;19.93;44.65;100729.63;5022385;28;20041;-73
2022/06/13 07:45:51;;;;;;;8.52;1.95;;;;;;;20.00;42.63;100724.91;5021275;28;20100;-72
2022/06/13 07:48:17;;;;;;;7.50;1.95;;;;;;;20.12;43.09;100721.72;5022363;28;20029;-72
2022/06/13 07:50:42;;;;;;;5.93;1.77;;;;;;;20.01;43.22;100734.69;5022682;28;20485;-72
2022/06/13 07:53:08;;;;;;;7.10;1.70;;;;;;;20.10;43.24;100728.94;5024943;28;20481;-72
2022/06/13 07:55:34;;;;;;;4.88;1.50;;;;;;;20.20;42.29;100717.81;5017350;28;20048;-72
2022/06/13 07:57:59;;;;;;;5.53;2.00;;;;;;;20.23;42.14;100712.34;5024851;28;20029;-72
2022/06/13 08:00:30;;;;;;;6.93;2.00;;;;;;;20.40;41.86;100698.19;5023217;28;20038;-72
2022/06/13 08:02:57;;;;;;;6.37;1.77;;;;;;;20.51;41.61;100703.94;5022418;28;20493;-71
2022/06/13 08:05:23;;;;;;;6.82;1.77;;;;;;;20.61;41.63;100696.41;5025201;28;20120;-72
2022/06/13 08:07:48;;;;;;;4.47;1.52;;;;;;;21.12;40.22;100713.72;5017058;28;20124;-72
2022/06/13 08:10:14;;;;;;;5.60;1.70;;;;;;;21.27;41.49;100712.97;5024520;28;20105;-73
2022/06/13 08:12:42;;;;;;;5.72;2.00;;;;;;;21.46;39.56;100713.03;5022736;28;20092;-72
2022/06/13 08:15:08;;;;;;;8.55;2.42;;;;;;;21.45;40.09;100711.25;5023073;28;20042;-72
2022/06/13 08:17:33;;;;;;;6.63;1.63;;;;;;;21.63;39.69;100717.56;5024626;28;20484;-72
2022/06/13 08:19:58;;;;;;;7.40;1.73;;;;;;;21.51;39.50;100719.03;5021842;28;20068;-72
2022/06/13 08:22:24;;;;;;;5.97;2.10;;;;;;;21.29;40.19;100737.94;5022597;28;20433;-72
2022/06/13 08:24:49;;;;;;;6.15;2.28;;;;;;;21.22;40.25;100734.69;4989800;28;20064;-73
2022/06/13 08:27:15;;;;;;;5.22;1.70;;;;;;;21.02;40.61;100732.06;5023587;28;20040;-72
2022/06/13 08:29:40;;;;;;;4.50;1.65;;;;;;;20.97;41.18;100734.94;5023775;28;20044;-72
2022/06/13 08:32:06;;;;;;;8.50;2.00;;;;;;;21.10;39.94;100737.06;5021680;28;20180;-72
2022/06/13 08:34:32;;;;;;;7.30;1.63;;;;;;;21.02;40.40;100743.66;5024914;28;20091;-72
2022/06/13 08:36:57;;;;;;;5.45;2.25;;;;;;;20.96;40.05;100740.41;5020727;28;20104;-73
2022/06/13 08:39:23;;;;;;;4.97;1.80;;;;;;;20.96;40.40;100752.00;5022135;28;20060;-72
2022/06/13 08:41:58;;;;;;;7.47;2.50;;;;;;;20.99;40.62;100746.50;5022890;28;20033;-72
2022/06/13 08:44:40;;;;;;;5.78;1.83;;;;;;;21.14;38.32;100760.13;5024559;28;20388;-72
2022/06/13 08:47:27;;;;;;;5.15;1.63;;;;;;;20.91;39.57;100759.41;5021946;28;20037;-73
2022/06/13 08:49:55;;;;;;;7.78;1.83;;;;;;;20.84;39.68;100763.28;5021032;28;20037;-72
2022/06/13 08:52:26;;;;;;;6.75;1.92;;;;;;;21.20;39.19;100767.91;5019759;28;20037;-72
2022/06/13 08:55:10;;;;;;;7.53;1.73;;;;;;;21.35;38.18;100764.50;5018050;28;20038;-72
2022/06/13 08:57:41;;;;;;;4.03;1.42;;;;;;;21.33;38.15;100771.75;5019908;28;20038;-72
2022/06/13 09:00:11;;;;;;;6.05;1.70;;;;;;;21.37;37.86;100767.09;5023769;28;20511;-73
2022/06/13 09:02:48;;;;;;;5.63;1.63;;;;;;;21.61;36.59;100762.41;5006333;28;20041;-72
2022/06/13 09:05:27;;;;;;;7.07;1.90;;;;;;;21.76;36.08;100775.09;5018115;28;20042;-74
2022/06/13 09:07:59;;;;;;;6.30;1.60;;;;;;;21.60;36.39;100774.09;5020856;28;20030;-72
2022/06/13 09:10:46;;;;;;;7.68;2.35;;;;;;;21.50;35.96;100776.34;5001986;28;20042;-72
2022/06/13 09:13:26;;;;;;;9.20;4.60;;;;;;;21.55;37.24;100779.69;5016658;28;20504;-72
2022/06/13 09:15:59;;;;;;;5.50;1.83;;;;;;;21.28;37.08;100768.41;5021611;28;20403;-72
2022/06/13 09:18:38;;;;;;;6.13;2.15;;;;;;;21.52;37.60;100787.03;5000471;28;20069;-72
2022/06/13 09:21:13;;;;;;;4.25;1.80;;;;;;;21.36;36.77;100768.06;5020081;28;20041;-73
2022/06/13 09:24:07;;;;;;;5.43;1.80;;;;;;;21.17;36.02;100787.72;5020352;28;20045;-73
2022/06/13 09:26:53;;;;;;;5.57;1.38;;;;;;;21.01;35.99;100784.88;5020102;28;20038;-73
2022/06/13 09:29:43;;;;;;;4.68;1.50;;;;;;;21.14;37.22;100784.28;5019270;28;20049;-73
2022/06/13 09:32:21;;;;;;;4.68;1.63;;;;;;;21.38;36.31;100767.09;5018643;28;20044;-72
2022/06/13 09:34:56;;;;;;;4.72;1.55;;;;;;;21.43;35.51;100774.91;5020561;28;20038;-72
2022/06/13 09:37:44;;;;;;;5.30;1.67;;;;;;;21.22;36.19;100785.69;5019228;28;20038;-73
2022/06/13 09:40:11;;;;;;;4.70;1.58;;;;;;;21.39;36.34;100776.88;5019615;28;20034;-72
2022/06/13 09:42:55;;;;;;;4.90;1.92;;;;;;;21.05;35.92;100779.34;5020787;28;20041;-72
2022/06/13 09:46:01;;;;;;;5.85;2.03;;;;;;;20.95;35.95;100797.66;5018185;28;20494;-72
2022/06/13 09:48:45;;;;;;;5.32;1.88;;;;;;;21.23;36.77;100781.19;4932131;29;20115;-72
2022/06/13 09:51:17;;;;;;;4.85;1.73;;;;;;;21.51;36.07;100779.91;5011175;28;20064;-72
2022/06/13 09:53:53;;;;;;;6.10;1.73;;;;;;;21.49;35.28;100773.75;5017749;28;20042;-71
2022/06/13 09:56:41;;;;;;;6.93;1.60;;;;;;;21.57;35.32;100780.50;5020839;28;20475;-72
2022/06/13 09:59:27;;;;;;;4.80;1.67;;;;;;;21.53;35.25;100788.75;5021268;28;20683;-72
2022/06/13 10:02:01;;;;;;;6.47;2.22;;;;;;;21.28;36.10;100771.09;5019921;28;20480;-72
2022/06/13 10:04:52;;;;;;;6.35;1.70;;;;;;;21.42;35.66;100760.59;5020077;28;20116;-72
2022/06/13 10:07:27;;;;;;;5.50;1.50;;;;;;;21.52;35.76;100776.28;5015591;28;20061;-72
2022/06/13 10:10:15;;;;;;;4.90;1.73;;;;;;;21.56;35.70;100769.81;5021961;28;20041;-72
2022/06/13 10:12:57;;;;;;;5.63;1.80;;;;;;;21.38;35.43;100772.44;4992794;28;20053;-72
2022/06/13 10:15:31;;;;;;;;;;;;;;;21.13;36.02;100771.81;5018476;28;20044;-74
2022/06/13 10:18:25;;;;;;;5.88;1.67;;;;;;;21.02;36.22;100762.44;5020209;28;19963;-72
2022/06/13 10:21:04;;;;;;;6.43;1.42;;;;;;;21.18;36.53;100759.91;5019294;28;20042;-72
2022/06/13 10:23:50;;;;;;;7.47;1.80;;;;;;;21.18;36.68;100761.75;5019716;28;20096;-72
2022/06/13 10:26:24;;;;;;;4.13;1.52;;;;;;;21.21;36.09;100761.59;5018813;28;20073;-72
2022/06/13 10:29:00;;;;;;;4.50;1.63;;;;;;;21.60;35.93;100752.63;5019670;28;20392;-72
2022/06/13 10:31:52;;;;;;;3.70;1.40;;;;;;;21.92;34.51;100731.34;5017936;28;20116;-72
2022/06/13 10:34:38;;;;;;;3.25;1.17;;;;;;;21.74;34.51;100739.38;5019468;28;20065;-72
2022/06/13 10:37:27;;;;;;;6.47;2.00;;;;;;;21.96;33.60;100725.75;5016279;28;20046;-72
2022/06/13 10:39:57;;;;;;;7.32;1.90;;;;;;;21.97;33.09;100729.31;5018590;28;20443;-72
2022/06/13 10:42:27;;;;;;;7.95;1.63;;;;;;;22.02;32.76;100740.69;5019749;28;20037;-72
2022/06/13 10:44:52;;;;;;;7.53;2.50;;;;;;;22.27;33.77;100738.53;5022781;28;20041;-72
2022/06/13 10:47:23;;;;;;;4.30;1.63;;;;;;;22.71;33.13;100729.06;5019361;28;20053;-72
2022/06/13 10:49:56;;;;;;;5.47;1.73;;;;;;;23.21;31.87;100720.06;5020718;28;20096;-72
2022/06/13 10:52:26;;;;;;;5.75;2.15;;;;;;;23.56;32.03;100725.31;5021908;28;20154;-72
2022/06/13 10:54:56;;;;;;;5.22;1.50;;;;;;;23.96;31.63;100723.88;5020141;28;20533;-72
2022/06/13 10:57:29;;;;;;;4.20;1.57;;;;;;;24.21;31.30;100727.84;5020698;28;20048;-72
2022/06/13 11:00:13;;;;;;;5.38;1.85;;;;;;;24.19;29.50;100745.94;5022642;28;20484;-72
2022/06/13 11:02:39;;;;;;;7.30;2.00;;;;;;;24.09;29.82;100739.34;5021587;28;20075;-72
2022/06/13 11:05:16;;;;;;;4.70;1.75;;;;;;;23.79;30.20;100742.91;5019447;28;20041;-72
2022/06/13 11:07:52;;;;;;;4.55;1.55;;;;;;;23.80;30.99;100736.53;5018925;28;20034;-72
2022/06/13 11:10:41;;;;;;;7.85;1.98;;;;;;;23.27;30.67;100735.03;5019018;28;20536;-72
2022/06/13 11:13:17;;;;;;;7.63;1.75;;;;;;;22.63;32.58;100736.69;5017478;28;20042;-72
2022/06/13 11:24:49;;;;;;;3.95;1.60;;;;;;;21.85;32.19;100758.53;5018230;28;20033;-72
2022/06/13 11:27:41;;;;;;;6.35;1.73;;;;;;;21.91;33.04;100769.94;5015693;28;20487;-72
2022/06/13 11:30:31;;;;;;;5.60;1.60;;;;;;;22.02;32.06;100755.00;5014710;28;20029;-72
2022/06/13 11:33:32;;;;;;;6.70;1.90;;;;;;;22.27;32.63;100754.66;5014694;28;20033;-72
2022/06/13 11:36:01;;;;;;;10.70;1.77;;;;;;;22.14;32.90;100753.53;5022632;28;20205;-72
2022/06/13 11:38:31;;;;;;;7.05;2.17;;;;;;;;;;5020165;28;20445;-72
2022/06/13 11:41:06;;;;;;;6.85;1.75;;;;;;;22.41;32.95;100753.09;5019422;28;20099;-72
2022/06/13 11:43:51;;;;;;;6.15;1.73;;;;;;;22.65;32.09;100754.47;5023112;28;20029;-72
2022/06/13 11:46:44;;;;;;;7.82;1.90;;;;;;;23.25;31.79;100747.72;5022729;28;20034;-72
2022/06/13 11:49:15;;;;;;;5.68;1.60;;;;;;;23.73;31.48;100759.41;5020481;28;20042;-72
2022/06/13 11:51:57;;;;;;;5.32;1.58;;;;;;;23.09;32.09;100763.84;5005114;28;20417;-72
2022/06/13 11:54:48;;;;;;;5.03;2.10;;;;;;;22.78;32.80;100743.06;5022802;28;20030;-72
2022/06/13 11:57:35;;;;;;;9.23;1.80;;;;;;;22.69;33.49;100758.75;5024435;28;20648;-72
2022/06/13 12:00:00;;;;;;;5.70;1.70;;;;;;;22.66;33.01;100750.84;5023826;28;20070;-72
2022/06/13 12:02:40;;;;;;;5.85;1.80;;;;;;;22.60;32.89;100748.47;5021727;28;20607;-72
2022/06/13 12:05:19;;;;;;;7.07;1.90;;;;;;;22.95;32.62;100749.28;5022496;28;20485;-72
2022/06/13 12:08:01;;;;;;;4.05;1.60;;;;;;;23.38;32.59;100743.38;5016209;28;20038;-72
2022/06/13 12:10:34;;;;;;;5.10;2.10;;;;;;;23.88;31.89;100745.03;5021953;28;20072;-72
2022/06/13 12:13:00;;;;;;;5.32;2.13;;;;;;;24.14;30.88;100743.50;5022523;28;20052;-72
2022/06/13 12:15:37;;;;;;;6.47;2.05;;;;;;;23.82;31.07;100738.19;5023896;28;20571;-72
2022/06/13 12:18:08;;;;;;;5.28;1.50;;;;;;;23.52;31.96;100730.00;5018304;28;20459;-72